Holsworthy, United Kingdom
Current Conditions -  °F | °C
As of 4:20 PM on Thursday 29 Jan 2015 (Local Time) from EGHQ Reporting Station
Scattered Clouds Scattered Clouds  
Wind Chill: 29°   Ceiling: Unl
Heat Index: 41°   Visibility: 6mi
Dew Point: 28°   Wind: 33mph
Humidity: 61%   Direction: 310°NW
Pressure: 29.09"   Gusts: 46mph
Location:  50.81°N, 4.35°W
Report Text: EGHQ 291620Z 31029G40KT 9999 R30/1200 SCT045 05/M02 Q0985
Loading
Personal Weather Stations






























Interactive Weather Map New forecast layout! Learn more

10-Day Weather Forecast

Advertisements
Track Severe Weather on mobile